Detall de PIREP

Printer-friendly versionPDF version

[2015/04/26 10:40:00]
Flight IATA:CT2209
Pilot Number:012
Company ICAO:CAT
Aircraft Type:MD11/E
PAX:0
Aircraft Registration:CARGO
Departing Airport: LFQQ
Destination Airport: LFMP
Alternate Airport:LEBL
Online: VATSIM
Route:CMB UM728 LESDO UN872 KOVIN UM728 KUKOR UY27 SIJAN
Flight Level:F310
No Slew and time accel
No pause
Crash detect
Detect pilot in Cockpit between each 30 and 45 minutes
10:40 Zero fuel Weight: 426924 Lbs, Fuel Weight: 48516 Lbs
10:40 VATSIM:LFQQ 261000Z 18004KT 9999 SCT013 BKN041 13/11 Q1007 NOSIG
10:40 VATSIM:LFMP 261000Z AUTO 09009KT 070V130 9000 SCT015 19/15 Q1007
10:45 Parking Brakes off
10:48 Take-off
10:48 Take off Weight: 474259 Lbs
10:48 Wind: 168º @ 003 Knots Heading: 256º
10:48 POS N50º 33´ 49´´ E003º 05´ 18´´
10:48 Gear Up: 203 Knots
10:48 Flaps:3 at 203 Knots
10:49 Flaps:2 at 204 Knots
10:49 Flaps:3 at 205 Knots
10:49 Flaps:2 at 205 Knots
10:49 Flaps:1 at 206 Knots
10:50 Flaps:0 at 255 Knots
10:59 TOC
10:59 Fuel Weight: 39081 Lb
11:03 Wind:225º@051 Knots Heading: 212º Ground Speed: 430 Knots Altitude 30813 ft
11:18 Wind:238º@043 Knots Heading: 166º Ground Speed: 475 Knots Altitude 30780 ft
11:33 Wind:240º@042 Knots Heading: 185º Ground Speed: 462 Knots Altitude 30757 ft
11:42 TOD
11:42 Fuel Weight: 27156 Lb
11:48 Wind:232º@024 Knots Heading: 189º Ground Speed: 388 Knots Altitude 21072 ft
11:54 Flaps:1 at 266 Knots
11:56 Flaps:2 at 236 Knots
11:56 Flaps:3 at 231 Knots
11:58 Flaps:4 at 189 Knots
11:58 Flaps:3 at 190 Knots
11:58 Flaps:4 at 190 Knots
11:58 Flaps:5 at 189 Knots
11:58 Flaps:6 at 190 Knots
12:00 Gear Down: 189 Knots
12:01 Flaps:7 at 180 Knots
12:01 Flaps:6 at 189 Knots
12:01 Flaps:5 at 212 Knots
12:01 Flaps:4 at 227 Knots
12:02 Flaps:5 at 222 Knots
12:02 Flaps:6 at 213 Knots
12:02 Flaps:5 at 212 Knots
12:02 Flaps:6 at 212 Knots
12:03 Wind:102º@009 Knots Heading: 328º Ground Speed: 201 Knots Altitude 790 ft
12:03 Flaps:7 at 189 Knots
12:03 TouchDown:Rate -173 ft/min Speed: 157 Knots
12:03 VATSIM:LFMP 261130Z AUTO 08009KT 9999 BKN017 BKN045 BKN160 19/15 Q1006
12:03 Land
12:03 Wind:079º@009 Knots
12:03 Heading: 330º
12:03 Flight Duration: 01:15
12:03 Landing Weight: 450541 Lbs
12:03 POS N42º 44´ 55´´ E002º 51´ 57´´
12:06 Parking brakes on
12:06 Block to Block Duration: 01:21
12:06 Final Fuel: 23262 Lbls
12:06 Spent Fuel: 25253 Lbls
12:06 Flight Length: 511 NM
12:06 TOD Land Length: 111 NM

Exportar CSV

Powered by Drupal - Modified by Danger4k